Time;durP1;ratioP1;P1;durP2;ratioP2;P2;SDS_P1;SDS_P2;PMS_P1;PMS_P2;Temp;Humidity;BMP_temperature;BMP_pressure;BME280_temperature;BME280_humidity;BME280_pressure;Samples;Min_cycle;Max_cycle;Signal;HPM_P1;HPM_P2
2022/04/30 00:00:13;;;;;;;20.35;4.07;;;;;;;;;;5022381;28;20033;-38
2022/04/30 00:02:40;;;;;;;18.00;3.10;;;;;;;;;;5022765;28;20083;-37
2022/04/30 00:05:08;;;;;;;12.35;2.83;;;;;;;;;;5024201;28;20033;-39
2022/04/30 00:07:35;;;;;;;16.25;3.00;;;;;;;;;;5021453;28;20026;-34
2022/04/30 00:10:02;;;;;;;18.95;3.33;;;;;;;;;;5027462;28;20025;-35
2022/04/30 00:12:31;;;;;;;17.10;2.70;;;;;;;;;;5022639;28;20029;-38
2022/04/30 00:14:58;;;;;;;21.10;3.33;;;;;;;;;;5022801;28;20029;-37
2022/04/30 00:17:25;;;;;;;20.23;3.28;;;;;;;;;;5022587;28;20032;-37
2022/04/30 00:19:52;;;;;;;24.33;3.20;;;;;;;;;;5023726;28;20040;-37
2022/04/30 00:22:19;;;;;;;20.50;3.53;;;;;;;;;;5022752;28;20764;-37
2022/04/30 00:24:46;;;;;;;18.00;2.60;;;;;;;;;;5022090;28;20067;-36
2022/04/30 00:27:14;;;;;;;22.08;3.08;;;;;;;;;;5004500;28;20479;-36
2022/04/30 00:29:41;;;;;;;25.45;3.95;;;;;;;;;;5004310;28;20061;-34
2022/04/30 00:32:08;;;;;;;16.02;3.65;;;;;;;;;;5019771;28;20034;-34
2022/04/30 00:34:35;;;;;;;14.65;3.10;;;;;;;;;;5012865;28;20452;-35
2022/04/30 00:37:03;;;;;;;17.67;5.70;;;;;;;;;;5017495;28;20026;-37
2022/04/30 00:39:32;;;;;;;28.08;11.57;;;;;;;;;;5015766;28;20092;-37
2022/04/30 00:41:59;;;;;;;58.17;33.40;;;;;;;;;;5030566;28;20091;-34
2022/04/30 00:44:27;;;;;;;102.60;62.45;;;;;;;;;;5014870;28;20060;-37
2022/04/30 00:46:55;;;;;;;220.15;142.77;;;;;;;;;;5032924;28;20411;-34
2022/04/30 00:49:22;;;;;;;268.88;168.43;;;;;;;;;;5033118;28;20030;-37
2022/04/30 00:51:50;;;;;;;294.20;195.45;;;;;;;;;;5015102;28;20116;-35
2022/04/30 00:54:20;;;;;;;282.33;184.32;;;;;;;;;;5032857;28;20033;-36
2022/04/30 00:56:56;;;;;;;262.00;162.73;;;;;;;;;;5032593;28;20041;-37
2022/04/30 00:59:24;;;;;;;260.27;162.35;;;;;;;;;;5014988;28;20052;-36
2022/04/30 01:01:51;;;;;;;256.48;160.60;;;;;;;;;;5030924;28;20122;-36
2022/04/30 01:04:19;;;;;;;250.88;159.95;;;;;;;;;;5013808;28;20053;-36
2022/04/30 01:06:57;;;;;;;255.77;160.68;;;;;;;;;;5034350;28;20539;-35
2022/04/30 01:09:31;;;;;;;238.98;152.43;;;;;;;;;;5053074;28;20029;-36
2022/04/30 01:11:58;;;;;;;238.25;150.40;;;;;;;;;;5052424;28;20079;-36
2022/04/30 01:14:29;;;;;;;230.63;149.00;;;;;;;;;;5053072;28;20035;-36
2022/04/30 01:17:05;;;;;;;230.23;146.30;;;;;;;;;;5052807;28;20036;-36
2022/04/30 01:19:34;;;;;;;220.07;141.13;;;;;;;;;;5052269;28;20036;-35
2022/04/30 01:22:02;;;;;;;203.23;134.00;;;;;;;;;;5052706;28;20068;-36
2022/04/30 01:24:30;;;;;;;198.77;129.70;;;;;;;;;;5052798;28;20032;-36
2022/04/30 01:27:00;;;;;;;193.80;126.10;;;;;;;;;;5053331;28;20048;-35
2022/04/30 01:29:36;;;;;;;186.98;121.88;;;;;;;;;;5053359;28;20090;-35
2022/04/30 01:37:36;;;;;;;181.20;118.60;;;;;;;;;;5025050;28;20040;-36
2022/04/30 01:40:05;;;;;;;176.25;115.85;;;;;;;;;;5013131;28;20044;-36
2022/04/30 01:42:35;;;;;;;178.30;118.22;;;;;;;;;;5013636;28;20030;-36
2022/04/30 01:45:04;;;;;;;174.18;115.45;;;;;;;;;;5013419;28;20042;-36
2022/04/30 01:47:31;;;;;;;170.02;113.82;;;;;;;;;;5012942;28;20038;-37
2022/04/30 01:49:58;;;;;;;168.82;113.03;;;;;;;;;;5018831;28;20067;-37
2022/04/30 01:52:25;;;;;;;164.68;110.50;;;;;;;;;;5022730;28;20026;-36
2022/04/30 01:54:52;;;;;;;162.95;108.97;;;;;;;;;;5004352;28;20030;-37
2022/04/30 01:57:28;;;;;;;164.10;108.97;;;;;;;;;;5021387;28;20029;-36
2022/04/30 01:59:56;;;;;;;162.63;107.93;;;;;;;;;;5021424;28;20598;-36
2022/04/30 02:02:24;;;;;;;164.27;107.63;;;;;;;;;;5020514;28;20030;-36
2022/04/30 02:04:55;;;;;;;156.50;104.20;;;;;;;;;;5022362;28;20075;-37
2022/04/30 02:07:24;;;;;;;156.40;104.00;;;;;;;;;;5022042;28;20077;-36
2022/04/30 02:09:52;;;;;;;154.00;103.18;;;;;;;;;;5021562;28;20079;-37
2022/04/30 02:12:19;;;;;;;144.52;99.80;;;;;;;;;;5022439;28;20030;-36
2022/04/30 02:14:49;;;;;;;145.95;98.38;;;;;;;;;;5005281;28;20111;-37
2022/04/30 02:17:17;;;;;;;149.48;97.85;;;;;;;;;;5022196;28;20032;-36
2022/04/30 02:22:31;;;;;;;136.18;94.72;;;;;;;;;;5021478;28;20108;-37
2022/04/30 02:25:01;;;;;;;134.30;93.63;;;;;;;;;;5020818;28;20037;-37
2022/04/30 02:27:28;;;;;;;125.13;88.60;;;;;;;;;;5020199;28;20034;-37
2022/04/30 02:29:55;;;;;;;132.00;91.60;;;;;;;;;;5021154;28;20033;-37
2022/04/30 02:32:22;;;;;;;131.05;89.15;;;;;;;;;;5022397;28;20025;-36
2022/04/30 02:34:50;;;;;;;123.70;86.85;;;;;;;;;;5020313;28;20077;-36
2022/04/30 02:37:17;;;;;;;122.45;86.35;;;;;;;;;;5021014;28;20037;-36
2022/04/30 02:39:47;;;;;;;118.97;84.32;;;;;;;;;;5022302;28;20017;-36
2022/04/30 02:42:14;;;;;;;120.90;83.75;;;;;;;;;;5020942;28;20133;-36
2022/04/30 02:44:41;;;;;;;119.57;82.10;;;;;;;;;;5020209;28;20025;-36
2022/04/30 02:47:08;;;;;;;115.57;80.25;;;;;;;;;;5020468;28;20117;-37
2022/04/30 02:49:35;;;;;;;113.65;79.15;;;;;;;;;;5020996;28;20041;-36
2022/04/30 02:52:02;;;;;;;109.35;76.97;;;;;;;;;;5022268;28;20029;-37
2022/04/30 02:54:30;;;;;;;109.80;76.95;;;;;;;;;;5020684;28;20026;-37
2022/04/30 02:56:58;;;;;;;108.15;75.75;;;;;;;;;;5020588;28;20025;-36
2022/04/30 03:02:10;;;;;;;107.47;73.80;;;;;;;;;;5020744;28;20117;-37
2022/04/30 03:04:38;;;;;;;98.22;70.53;;;;;;;;;;5020683;28;20021;-36
2022/04/30 03:07:05;;;;;;;107.45;73.40;;;;;;;;;;5020049;28;20088;-36
2022/04/30 03:09:32;;;;;;;99.07;70.07;;;;;;;;;;5021380;28;20064;-37
2022/04/30 03:11:59;;;;;;;100.20;71.47;;;;;;;;;;5030649;28;20025;-36
2022/04/30 03:14:26;;;;;;;97.28;67.80;;;;;;;;;;5031700;28;20032;-36
2022/04/30 03:22:23;;;;;;;95.32;68.45;;;;;;;;;;5031609;28;20048;-36
2022/04/30 03:24:51;;;;;;;95.85;66.75;;;;;;;;;;5031603;28;20057;-36
2022/04/30 03:27:18;;;;;;;91.68;63.95;;;;;;;;;;5013948;28;20451;-36
2022/04/30 03:29:46;;;;;;;90.32;63.45;;;;;;;;;;5031595;28;20108;-36
2022/04/30 03:32:14;;;;;;;86.03;61.60;;;;;;;;;;5031138;28;20038;-36
2022/04/30 03:34:40;;;;;;;85.38;62.15;;;;;;;;;;5031402;28;20029;-36
2022/04/30 03:37:07;;;;;;;85.35;60.85;;;;;;;;;;5031797;28;20403;-35
2022/04/30 03:39:34;;;;;;;80.22;59.35;;;;;;;;;;5028266;28;20026;-36
2022/04/30 03:42:02;;;;;;;83.82;59.55;;;;;;;;;;5031485;28;20104;-36
2022/04/30 03:44:29;;;;;;;83.53;59.50;;;;;;;;;;5028536;28;20786;-36
2022/04/30 03:46:56;;;;;;;80.63;57.97;;;;;;;;;;5023676;28;20025;-37
2022/04/30 03:49:23;;;;;;;82.78;58.55;;;;;;;;;;5024396;28;20034;-36
2022/04/30 03:51:50;;;;;;;76.20;56.35;;;;;;;;;;5006181;28;20040;-36
2022/04/30 03:54:17;;;;;;;82.07;56.10;;;;;;;;;;5025345;28;20025;-37
2022/04/30 03:56:44;;;;;;;76.90;56.15;;;;;;;;;;5020348;28;20030;-36
2022/04/30 03:59:11;;;;;;;73.47;52.10;;;;;;;;;;5015153;28;20026;-36
2022/04/30 04:01:39;;;;;;;77.45;54.25;;;;;;;;;;5015118;28;20030;-36
2022/04/30 04:04:06;;;;;;;74.47;54.17;;;;;;;;;;5014853;28;20050;-36
2022/04/30 04:06:33;;;;;;;74.10;51.13;;;;;;;;;;5014874;28;20114;-37
2022/04/30 04:09:00;;;;;;;74.60;53.42;;;;;;;;;;5025548;28;20081;-38
2022/04/30 04:11:27;;;;;;;72.47;52.65;;;;;;;;;;5014988;28;20033;-38
2022/04/30 04:19:26;;;;;;;61.10;44.70;;;;;;;;;;5015349;28;20405;-38
2022/04/30 04:21:53;;;;;;;59.22;44.47;;;;;;;;;;5015250;28;20109;-37
2022/04/30 04:27:05;;;;;;;56.40;41.13;;;;;;;;;;5015186;28;20040;-39
2022/04/30 04:29:32;;;;;;;58.50;41.13;;;;;;;;;;5014993;28;20057;-38
2022/04/30 04:31:59;;;;;;;62.78;41.05;;;;;;;;;;5014951;28;20053;-37
2022/04/30 04:34:26;;;;;;;55.05;39.10;;;;;;;;;;5015178;28;20026;-38
2022/04/30 04:36:53;;;;;;;55.45;38.35;;;;;;;;;;5014850;28;20424;-38
2022/04/30 04:39:20;;;;;;;57.85;40.20;;;;;;;;;;5015011;28;20030;-37
2022/04/30 04:41:47;;;;;;;52.42;37.70;;;;;;;;;;5014899;28;20038;-38
2022/04/30 04:44:13;;;;;;;49.90;35.75;;;;;;;;;;5014793;28;20088;-38
2022/04/30 04:46:41;;;;;;;50.25;34.70;;;;;;;;;;4997328;28;20038;-37
2022/04/30 04:49:09;;;;;;;49.47;34.17;;;;;;;;;;5014773;28;20034;-38
2022/04/30 04:51:36;;;;;;;51.05;35.08;;;;;;;;;;5014701;28;20069;-38
2022/04/30 04:54:03;;;;;;;48.70;34.78;;;;;;;;;;5014711;28;20076;-38
2022/04/30 04:56:31;;;;;;;47.35;33.03;;;;;;;;;;5014683;28;20096;-38
2022/04/30 04:58:58;;;;;;;46.65;32.60;;;;;;;;;;5014110;28;20050;-38
2022/04/30 05:01:26;;;;;;;45.45;32.30;;;;;;;;;;5014555;28;20022;-38
2022/04/30 05:03:53;;;;;;;47.03;33.28;;;;;;;;;;5014208;28;20046;-38
2022/04/30 05:06:20;;;;;;;41.20;31.70;;;;;;;;;;5014434;28;20026;-38
2022/04/30 05:08:47;;;;;;;44.95;32.17;;;;;;;;;;5014483;28;20538;-38
2022/04/30 05:11:13;;;;;;;43.33;31.52;;;;;;;;;;5014332;28;20427;-38
2022/04/30 05:13:40;;;;;;;40.50;30.52;;;;;;;;;;5014380;28;20052;-37
2022/04/30 05:16:07;;;;;;;44.10;29.58;;;;;;;;;;5014303;28;20061;-38
2022/04/30 05:18:34;;;;;;;45.72;30.52;;;;;;;;;;5014231;28;20037;-38
2022/04/30 05:21:01;;;;;;;40.05;29.63;;;;;;;;;;5014083;28;20101;-38
2022/04/30 05:23:28;;;;;;;38.78;28.65;;;;;;;;;;5014059;28;20033;-38
2022/04/30 05:25:55;;;;;;;40.45;28.95;;;;;;;;;;5014198;28;20030;-38
2022/04/30 05:28:22;;;;;;;41.65;29.70;;;;;;;;;;5014109;28;20034;-38
2022/04/30 05:30:49;;;;;;;39.42;27.77;;;;;;;;;;5013880;28;20022;-38
2022/04/30 05:33:16;;;;;;;39.17;27.60;;;;;;;;;;5014020;28;20026;-38
2022/04/30 05:35:43;;;;;;;34.97;26.55;;;;;;;;;;5013957;28;20152;-38
2022/04/30 05:38:10;;;;;;;36.10;27.27;;;;;;;;;;5013924;28;20048;-38
2022/04/30 05:40:37;;;;;;;37.17;26.95;;;;;;;;;;5013788;28;20032;-38
2022/04/30 05:43:04;;;;;;;36.20;26.40;;;;;;;;;;5013735;28;20643;-38
2022/04/30 05:45:32;;;;;;;36.50;27.15;;;;;;;;;;5013811;28;20105;-38
2022/04/30 05:47:59;;;;;;;36.42;26.10;;;;;;;;;;5013783;28;20535;-38
2022/04/30 05:50:26;;;;;;;35.13;25.90;;;;;;;;;;5013622;28;20026;-38
2022/04/30 05:52:53;;;;;;;36.22;26.27;;;;;;;;;;5013695;28;20036;-38
2022/04/30 05:55:20;;;;;;;34.50;25.35;;;;;;;;;;5013516;28;20085;-38
2022/04/30 05:57:47;;;;;;;32.55;24.25;;;;;;;;;;5013567;28;20037;-38
2022/04/30 06:00:14;;;;;;;34.13;24.52;;;;;;;;;;5013628;28;20474;-38
2022/04/30 06:02:41;;;;;;;32.63;24.85;;;;;;;;;;5013338;28;20061;-38
2022/04/30 06:05:33;;;;;;;32.85;23.92;;;;;;;;;;5012940;28;20797;-38
2022/04/30 06:08:00;;;;;;;31.05;22.73;;;;;;;;;;5033128;28;20430;-38
2022/04/30 06:10:27;;;;;;;35.28;23.75;;;;;;;;;;5031896;28;20025;-38
2022/04/30 06:12:54;;;;;;;33.00;23.63;;;;;;;;;;5032773;28;20029;-38
2022/04/30 06:15:21;;;;;;;30.88;23.15;;;;;;;;;;5032698;28;20035;-38
2022/04/30 06:17:48;;;;;;;29.48;22.10;;;;;;;;;;5032585;28;20025;-37
2022/04/30 06:20:15;;;;;;;29.33;21.90;;;;;;;;;;5032579;28;20031;-38
2022/04/30 06:22:42;;;;;;;27.50;21.75;;;;;;;;;;5032249;28;20083;-38
2022/04/30 06:25:10;;;;;;;26.73;21.13;;;;;;;;;;5030230;28;20026;-38
2022/04/30 06:27:37;;;;;;;28.95;20.90;;;;;;;;;;5030499;28;20083;-38
2022/04/30 06:30:04;;;;;;;26.63;20.42;;;;;;;;;;5032368;28;20033;-38
2022/04/30 06:32:31;;;;;;;28.02;20.92;;;;;;;;;;5032349;28;20030;-38
2022/04/30 06:34:59;;;;;;;28.95;21.17;;;;;;;;;;5032659;28;20030;-37
2022/04/30 06:37:26;;;;;;;26.45;20.23;;;;;;;;;;5032555;28;20048;-38
2022/04/30 06:39:53;;;;;;;27.02;19.58;;;;;;;;;;5032589;28;20531;-38
2022/04/30 06:42:20;;;;;;;27.95;19.67;;;;;;;;;;5032552;28;20107;-38
2022/04/30 06:44:47;;;;;;;24.10;19.05;;;;;;;;;;5032639;28;20029;-37
2022/04/30 06:47:15;;;;;;;27.48;19.70;;;;;;;;;;5032619;28;20029;-38
2022/04/30 06:49:42;;;;;;;25.98;19.98;;;;;;;;;;5032426;28;20069;-37
2022/04/30 06:52:09;;;;;;;26.15;19.08;;;;;;;;;;5032596;28;20021;-37
2022/04/30 06:57:21;;;;;;;23.65;18.15;;;;;;;;;;5018981;28;20091;-37
2022/04/30 06:59:52;;;;;;;23.70;18.65;;;;;;;;;;5032198;28;20030;-38
2022/04/30 07:02:22;;;;;;;24.02;18.80;;;;;;;;;;5032226;28;20025;-37
2022/04/30 07:04:51;;;;;;;22.63;17.65;;;;;;;;;;5032248;28;20053;-37
2022/04/30 07:07:19;;;;;;;25.63;18.13;;;;;;;;;;5032291;28;20080;-37
2022/04/30 07:09:46;;;;;;;25.05;17.98;;;;;;;;;;5032385;28;20056;-37
2022/04/30 07:12:14;;;;;;;19.80;15.90;;;;;;;;;;5032400;28;20084;-37
2022/04/30 07:14:42;;;;;;;23.25;16.92;;;;;;;;;;5032179;28;20061;-37
2022/04/30 07:17:11;;;;;;;20.50;15.73;;;;;;;;;;5032160;28;20487;-37
2022/04/30 07:19:38;;;;;;;20.40;16.27;;;;;;;;;;5032182;28;20096;-37
2022/04/30 07:22:07;;;;;;;23.10;16.23;;;;;;;;;;5034431;28;20034;-37
2022/04/30 07:24:34;;;;;;;20.42;15.70;;;;;;;;;;5036024;28;20083;-37
2022/04/30 07:27:04;;;;;;;21.13;15.48;;;;;;;;;;5036151;28;20483;-37
2022/04/30 07:29:32;;;;;;;20.95;16.20;;;;;;;;;;5036015;28;20430;-37
2022/04/30 07:31:59;;;;;;;20.25;15.52;;;;;;;;;;5035972;28;20033;-37
2022/04/30 07:34:27;;;;;;;20.27;15.38;;;;;;;;;;5036062;28;20033;-37
2022/04/30 07:36:54;;;;;;;21.73;15.40;;;;;;;;;;5035932;28;20034;-37
2022/04/30 07:39:21;;;;;;;18.52;13.98;;;;;;;;;;5035932;28;20037;-37
2022/04/30 07:41:49;;;;;;;18.38;14.40;;;;;;;;;;5018102;28;20112;-37
2022/04/30 07:44:17;;;;;;;21.58;13.75;;;;;;;;;;5035728;28;20037;-37
2022/04/30 07:46:44;;;;;;;19.25;14.32;;;;;;;;;;5035048;28;20037;-37
2022/04/30 07:49:10;;;;;;;19.13;14.20;;;;;;;;;;5033511;28;20025;-37
2022/04/30 07:51:53;;;;;;;18.20;13.85;;;;;;;;;;5035704;28;20104;-37
2022/04/30 07:54:20;;;;;;;16.83;13.68;;;;;;;;;;5035555;28;20033;-37
2022/04/30 07:56:47;;;;;;;17.70;14.20;;;;;;;;;;5035655;28;20034;-37
2022/04/30 07:59:14;;;;;;;18.35;13.75;;;;;;;;;;5035409;28;20037;-37
2022/04/30 08:01:41;;;;;;;15.80;12.70;;;;;;;;;;5035522;28;20030;-37
2022/04/30 08:04:08;;;;;;;17.45;13.50;;;;;;;;;;5034927;28;20046;-37
2022/04/30 08:06:35;;;;;;;19.00;13.15;;;;;;;;;;5035506;28;20100;-37
2022/04/30 08:09:02;;;;;;;17.35;12.48;;;;;;;;;;5035396;28;20514;-37
2022/04/30 08:11:29;;;;;;;16.25;12.63;;;;;;;;;;5035315;28;20048;-37
2022/04/30 08:13:56;;;;;;;17.05;12.40;;;;;;;;;;5035300;28;20037;-37
2022/04/30 08:16:23;;;;;;;14.98;11.98;;;;;;;;;;5035274;28;20386;-37
2022/04/30 08:18:50;;;;;;;14.98;12.00;;;;;;;;;;5035265;28;20026;-37
2022/04/30 08:21:17;;;;;;;16.35;11.95;;;;;;;;;;5035112;28;20029;-37
2022/04/30 08:23:44;;;;;;;14.95;11.63;;;;;;;;;;5035020;28;20056;-37
2022/04/30 08:26:11;;;;;;;14.90;11.82;;;;;;;;;;5017289;28;20372;-37
2022/04/30 08:28:38;;;;;;;15.40;11.85;;;;;;;;;;5035022;28;20530;-37
2022/04/30 08:31:05;;;;;;;14.80;11.20;;;;;;;;;;5034842;28;20104;-37
2022/04/30 08:33:32;;;;;;;15.05;10.85;;;;;;;;;;5033996;28;20036;-37
2022/04/30 08:35:59;;;;;;;13.75;10.40;;;;;;;;;;5034798;28;20024;-37
2022/04/30 08:38:26;;;;;;;13.90;10.57;;;;;;;;;;5034736;28;20072;-37
2022/04/30 08:40:53;;;;;;;13.60;10.15;;;;;;;;;;5032119;28;20122;-37
2022/04/30 08:43:21;;;;;;;14.85;11.20;;;;;;;;;;5034748;28;20570;-37
2022/04/30 08:45:48;;;;;;;13.63;10.02;;;;;;;;;;5034807;28;20060;-37
2022/04/30 08:48:16;;;;;;;13.73;10.43;;;;;;;;;;5034719;28;20619;-37
2022/04/30 08:50:44;;;;;;;13.57;10.52;;;;;;;;;;5034583;28;20485;-37
2022/04/30 08:53:11;;;;;;;13.80;9.75;;;;;;;;;;5034541;28;20025;-37
2022/04/30 08:58:48;;;;;;;12.93;9.85;;;;;;;;;;5032404;28;20111;-37
2022/04/30 09:01:15;;;;;;;11.50;9.68;;;;;;;;;;5032011;28;20029;-37
2022/04/30 09:03:42;;;;;;;12.65;9.55;;;;;;;;;;5033829;28;20053;-37
2022/04/30 09:06:09;;;;;;;13.00;9.52;;;;;;;;;;5034272;28;20442;-37
2022/04/30 09:08:36;;;;;;;13.25;9.50;;;;;;;;;;5034259;28;20030;-37
2022/04/30 09:11:07;;;;;;;12.27;9.10;;;;;;;;;;5034100;28;20026;-37
2022/04/30 09:13:43;;;;;;;11.98;9.20;;;;;;;;;;5033999;28;20451;-37
2022/04/30 09:16:24;;;;;;;11.63;8.73;;;;;;;;;;5034021;28;20108;-37
2022/04/30 09:18:55;;;;;;;10.05;8.15;;;;;;;;;;5034079;28;20104;-37
2022/04/30 09:21:23;;;;;;;10.88;8.57;;;;;;;;;;5034054;28;20032;-37
2022/04/30 09:23:50;;;;;;;12.32;8.88;;;;;;;;;;5033813;28;20411;-37
2022/04/30 09:26:17;;;;;;;11.40;8.85;;;;;;;;;;5034013;28;20032;-38
2022/04/30 09:28:46;;;;;;;11.77;7.82;;;;;;;;;;5033985;28;20391;-37
2022/04/30 09:31:18;;;;;;;10.95;8.43;;;;;;;;;;5030729;28;20025;-37
2022/04/30 09:33:55;;;;;;;12.80;8.40;;;;;;;;;;5033775;28;20036;-37
2022/04/30 09:39:15;;;;;;;9.57;7.57;;;;;;;;;;5033910;28;20095;-37
2022/04/30 09:41:43;;;;;;;10.18;7.97;;;;;;;;;;5033551;28;20033;-37
2022/04/30 09:44:12;;;;;;;11.48;7.97;;;;;;;;;;5033396;28;20091;-37
2022/04/30 09:46:40;;;;;;;10.00;7.38;;;;;;;;;;5033475;28;20419;-38
2022/04/30 09:54:40;;;;;;;9.98;6.90;;;;;;;;;;5033708;28;20048;-38
2022/04/30 09:57:09;;;;;;;9.55;7.13;;;;;;;;;;5033205;28;20438;-38
2022/04/30 09:59:37;;;;;;;9.27;7.00;;;;;;;;;;5033102;28;20124;-38
2022/04/30 10:02:05;;;;;;;11.13;7.18;;;;;;;;;;5033309;28;20021;-38
2022/04/30 10:04:33;;;;;;;8.05;6.18;;;;;;;;;;5033055;28;20045;-38
2022/04/30 10:07:02;;;;;;;8.45;6.28;;;;;;;;;;5033158;28;20022;-38
2022/04/30 10:09:29;;;;;;;9.95;6.43;;;;;;;;;;5033151;28;20053;-38
2022/04/30 10:12:03;;;;;;;7.32;6.00;;;;;;;;;;5033204;28;20057;-38
2022/04/30 10:14:42;;;;;;;10.38;6.80;;;;;;;;;;5033180;28;20038;-38
2022/04/30 10:17:23;;;;;;;8.35;6.32;;;;;;;;;;5033017;28;20022;-38
2022/04/30 10:20:12;;;;;;;7.70;6.25;;;;;;;;;;5032832;28;20029;-38
2022/04/30 10:22:50;;;;;;;8.23;6.22;;;;;;;;;;5013782;28;20032;-38
2022/04/30 10:25:17;;;;;;;8.18;6.35;;;;;;;;;;5015076;28;20029;-38
2022/04/30 10:27:47;;;;;;;8.25;6.20;;;;;;;;;;5032828;28;20535;-38
2022/04/30 10:30:24;;;;;;;8.15;5.97;;;;;;;;;;5032691;28;20090;-38
2022/04/30 10:33:07;;;;;;;10.63;6.30;;;;;;;;;;5032804;28;20025;-38
2022/04/30 10:35:35;;;;;;;7.85;6.30;;;;;;;;;;5032774;28;20018;-38
2022/04/30 10:38:21;;;;;;;7.30;6.00;;;;;;;;;;5032641;28;20029;-38
2022/04/30 10:40:58;;;;;;;9.05;5.70;;;;;;;;;;5032647;28;20072;-38
2022/04/30 10:43:26;;;;;;;6.75;5.68;;;;;;;;;;5032638;28;20029;-38
2022/04/30 10:45:55;;;;;;;9.40;5.97;;;;;;;;;;5023779;28;20556;-38
2022/04/30 10:48:23;;;;;;;7.20;5.35;;;;;;;;;;5025366;28;20037;-38
2022/04/30 10:50:55;;;;;;;7.68;5.63;;;;;;;;;;5032359;28;20029;-37
2022/04/30 10:53:28;;;;;;;8.80;5.07;;;;;;;;;;5020192;28;20052;-38
2022/04/30 10:55:54;;;;;;;;;;;;;;;;;;5021996;28;20026;-35
2022/04/30 10:58:25;;;;;;;7.07;4.82;;;;;;;;;;5023217;28;20004;-37
2022/04/30 11:00:53;;;;;;;9.50;5.30;;;;;;;;;;5032222;28;20025;-37
2022/04/30 11:03:26;;;;;;;5.70;4.88;;;;;;;;;;5020763;28;20503;-38
2022/04/30 11:05:53;;;;;;;8.32;4.82;;;;;;;;;;5017661;28;20550;-37
2022/04/30 11:08:20;;;;;;;8.45;5.28;;;;;;;;;;5022695;28;20175;-38
2022/04/30 11:10:56;;;;;;;6.15;4.70;;;;;;;;;;5020027;28;20026;-38
2022/04/30 11:13:24;;;;;;;7.72;4.70;;;;;;;;;;5024291;28;20037;-37
2022/04/30 11:15:51;;;;;;;8.75;5.03;;;;;;;;;;5026311;28;20033;-38
2022/04/30 11:18:21;;;;;;;8.18;4.63;;;;;;;;;;5021441;28;20535;-37
2022/04/30 11:20:48;;;;;;;7.60;4.53;;;;;;;;;;5019473;28;20032;-38
2022/04/30 11:29:29;;;;;;;6.88;4.18;;;;;;;;;;5017966;28;20037;-37
2022/04/30 11:31:56;;;;;;;5.47;4.25;;;;;;;;;;5029005;28;20029;-38
2022/04/30 11:34:24;;;;;;;8.50;4.88;;;;;;;;;;5031306;28;20499;-37
2022/04/30 11:36:58;;;;;;;7.50;4.30;;;;;;;;;;5031171;28;20061;-37
2022/04/30 11:39:26;;;;;;;6.63;4.30;;;;;;;;;;5024154;28;20040;-38
2022/04/30 11:41:53;;;;;;;6.72;3.80;;;;;;;;;;5023559;28;20029;-37
2022/04/30 11:44:25;;;;;;;9.73;4.18;;;;;;;;;;5025553;28;20066;-38
2022/04/30 11:46:52;;;;;;;28.05;5.13;;;;;;;;;;5015522;28;20029;-55
2022/04/30 11:49:23;;;;;;;5.55;3.70;;;;;;;;;;5012078;28;20034;-47
2022/04/30 11:51:51;;;;;;;9.82;4.38;;;;;;;;;;5023478;28;20026;-49
2022/04/30 11:54:19;;;;;;;10.80;4.35;;;;;;;;;;5028313;28;20034;-51
2022/04/30 11:56:46;;;;;;;8.77;4.28;;;;;;;;;;5025338;28;20084;-52
2022/04/30 11:59:14;;;;;;;8.43;4.13;;;;;;;;;;5013336;28;20373;-53
2022/04/30 12:01:44;;;;;;;6.90;4.15;;;;;;;;;;5022631;28;20021;-49
2022/04/30 12:04:14;;;;;;;11.05;4.43;;;;;;;;;;5030817;28;20131;-49
2022/04/30 12:06:44;;;;;;;7.68;4.65;;;;;;;;;;5028140;28;20044;-50
2022/04/30 12:09:18;;;;;;;10.07;4.30;;;;;;;;;;5026262;28;20029;-52
2022/04/30 12:11:50;;;;;;;9.35;4.30;;;;;;;;;;5018177;28;20030;-49
2022/04/30 12:14:17;;;;;;;10.17;4.53;;;;;;;;;;5035214;28;20029;-52
2022/04/30 12:16:45;;;;;;;9.77;4.97;;;;;;;;;;5018517;28;20037;-53
2022/04/30 12:25:27;;;;;;;6.97;4.38;;;;;;;;;;5030079;28;20047;-50
2022/04/30 12:27:56;;;;;;;9.95;4.70;;;;;;;;;;5017202;28;20038;-56
2022/04/30 12:30:24;;;;;;;13.52;4.63;;;;;;;;;;5018298;28;20365;-57
2022/04/30 12:32:54;;;;;;;13.25;5.00;;;;;;;;;;5031413;28;20033;-53
2022/04/30 12:35:40;;;;;;;7.93;4.45;;;;;;;;;;5034276;28;20387;-51
2022/04/30 12:38:07;;;;;;;15.15;4.90;;;;;;;;;;5034401;28;20863;-51
2022/04/30 12:40:34;;;;;;;9.25;4.28;;;;;;;;;;5016368;28;20403;-57
2022/04/30 12:43:03;;;;;;;12.13;4.65;;;;;;;;;;5034179;28;20029;-54
2022/04/30 12:45:31;;;;;;;10.25;4.30;;;;;;;;;;5034070;28;20441;-58
2022/04/30 12:47:58;;;;;;;8.15;4.13;;;;;;;;;;5034187;28;20495;-54
2022/04/30 12:50:26;;;;;;;9.55;4.55;;;;;;;;;;5024250;28;20033;-55
2022/04/30 12:52:53;;;;;;;7.50;4.20;;;;;;;;;;5023276;28;20018;-57
2022/04/30 12:55:20;;;;;;;8.23;4.20;;;;;;;;;;5016108;28;20036;-55
2022/04/30 12:58:12;;;;;;;8.35;4.03;;;;;;;;;;5031800;28;20091;-57
2022/04/30 13:00:40;;;;;;;7.07;3.92;;;;;;;;;;5029382;28;20022;-58
2022/04/30 13:03:07;;;;;;;12.27;4.50;;;;;;;;;;5020668;28;20081;-57
2022/04/30 13:05:34;;;;;;;12.68;4.65;;;;;;;;;;5025452;28;20112;-57
2022/04/30 13:08:01;;;;;;;10.82;3.88;;;;;;;;;;5021127;28;20037;-57
2022/04/30 13:13:32;;;;;;;12.55;4.32;;;;;;;;;;5023042;28;20032;-59
2022/04/30 13:15:59;;;;;;;8.35;4.15;;;;;;;;;;5017573;28;20068;-59
2022/04/30 13:18:27;;;;;;;7.85;3.90;;;;;;;;;;5023130;28;20034;-61
2022/04/30 13:20:54;;;;;;;11.98;3.53;;;;;;;;;;5030509;28;20099;-60
2022/04/30 13:23:21;;;;;;;9.65;4.13;;;;;;;;;;5032545;28;20506;-60
2022/04/30 13:25:48;;;;;;;8.82;3.72;;;;;;;;;;5032305;28;20064;-59
2022/04/30 13:28:15;;;;;;;9.45;3.85;;;;;;;;;;5032600;28;20029;-56
2022/04/30 13:30:42;;;;;;;10.27;4.10;;;;;;;;;;5031657;28;20033;-57
2022/04/30 13:33:09;;;;;;;10.68;4.05;;;;;;;;;;5031536;28;20022;-58
2022/04/30 13:35:36;;;;;;;12.98;3.78;;;;;;;;;;5020616;28;20034;-57
2022/04/30 13:38:03;;;;;;;14.05;3.72;;;;;;;;;;5013491;28;20030;-58
2022/04/30 13:40:30;;;;;;;16.65;4.13;;;;;;;;;;5017215;28;20778;-58
2022/04/30 13:42:57;;;;;;;9.63;3.90;;;;;;;;;;5028390;28;20045;-58
2022/04/30 13:45:24;;;;;;;15.70;4.68;;;;;;;;;;5031706;28;20152;-58
2022/04/30 13:47:52;;;;;;;8.63;3.72;;;;;;;;;;5019489;28;20025;-56
2022/04/30 13:50:19;;;;;;;15.45;4.82;;;;;;;;;;5017819;28;20038;-55
2022/04/30 13:52:46;;;;;;;14.57;4.40;;;;;;;;;;5027130;28;20029;-55
2022/04/30 13:55:13;;;;;;;14.05;3.97;;;;;;;;;;5024031;28;20026;-57
2022/04/30 13:57:40;;;;;;;16.83;5.22;;;;;;;;;;5018329;28;20029;-58
2022/04/30 14:00:10;;;;;;;16.17;5.30;;;;;;;;;;5016728;28;20907;-60
2022/04/30 14:02:39;;;;;;;15.27;4.47;;;;;;;;;;5005461;28;20064;-56
2022/04/30 14:05:07;;;;;;;19.25;4.25;;;;;;;;;;5031881;28;20095;-58
2022/04/30 14:07:34;;;;;;;18.65;5.13;;;;;;;;;;5020594;28;20108;-58
2022/04/30 14:10:01;;;;;;;18.23;4.65;;;;;;;;;;5010785;28;20038;-58
2022/04/30 14:12:28;;;;;;;16.33;4.22;;;;;;;;;;5011786;28;20111;-57
2022/04/30 14:14:58;;;;;;;13.05;4.72;;;;;;;;;;5031187;28;20045;-57
2022/04/30 14:20:35;;;;;;;14.52;4.70;;;;;;;;;;5020131;28;20040;-59
2022/04/30 14:23:02;;;;;;;15.07;4.57;;;;;;;;;;5020958;28;20399;-58
2022/04/30 14:25:29;;;;;;;15.90;4.20;;;;;;;;;;5021959;28;20056;-52
2022/04/30 14:27:56;;;;;;;14.23;3.78;;;;;;;;;;5020674;28;20034;-55
2022/04/30 14:30:23;;;;;;;11.27;4.10;;;;;;;;;;5019132;28;20029;-55
2022/04/30 14:32:50;;;;;;;19.83;4.55;;;;;;;;;;5012423;28;20029;-54
2022/04/30 14:35:17;;;;;;;13.82;4.38;;;;;;;;;;5012732;28;20038;-54
2022/04/30 14:37:44;;;;;;;19.30;4.82;;;;;;;;;;5016185;28;20168;-55
2022/04/30 14:40:15;;;;;;;14.52;3.97;;;;;;;;;;5028214;28;20044;-61
2022/04/30 14:42:42;;;;;;;14.55;4.40;;;;;;;;;;5027108;28;20112;-56
2022/04/30 14:45:09;;;;;;;20.38;4.60;;;;;;;;;;5028880;28;20076;-61
2022/04/30 14:47:36;;;;;;;16.35;4.20;;;;;;;;;;5031782;28;20483;-53
2022/04/30 14:50:04;;;;;;;13.65;4.32;;;;;;;;;;5022663;28;20033;-61
2022/04/30 14:52:31;;;;;;;21.20;4.30;;;;;;;;;;5016705;28;20060;-60
2022/04/30 14:54:58;;;;;;;20.05;4.72;;;;;;;;;;5015971;28;20029;-60
2022/04/30 14:57:26;;;;;;;15.55;4.07;;;;;;;;;;5013743;28;20083;-60
2022/04/30 14:59:53;;;;;;;18.75;5.50;;;;;;;;;;5031667;28;20095;-61
2022/04/30 15:02:20;;;;;;;19.85;7.50;;;;;;;;;;5031193;28;20034;-61
2022/04/30 15:04:47;;;;;;;21.88;9.63;;;;;;;;;;5031776;28;20100;-59
2022/04/30 15:07:14;;;;;;;27.27;10.63;;;;;;;;;;5014132;28;20152;-57
2022/04/30 15:09:42;;;;;;;23.88;8.80;;;;;;;;;;5032025;28;20365;-59
2022/04/30 15:12:09;;;;;;;27.83;8.60;;;;;;;;;;5031728;28;20036;-59
2022/04/30 15:14:36;;;;;;;20.67;8.23;;;;;;;;;;5030791;28;20029;-57
2022/04/30 15:17:03;;;;;;;21.50;7.53;;;;;;;;;;5032129;28;20037;-58
2022/04/30 15:19:30;;;;;;;21.25;7.00;;;;;;;;;;5031837;28;20040;-58
2022/04/30 15:21:57;;;;;;;17.23;7.15;;;;;;;;;;5031509;28;20483;-58
2022/04/30 15:24:24;;;;;;;18.23;7.15;;;;;;;;;;5030917;28;20086;-57
2022/04/30 15:26:52;;;;;;;22.73;6.78;;;;;;;;;;5031425;28;20037;-58